sensor_id;sensor_type;location;lat;lon;timestamp;pressure;altitude;pressure_sealevel;temperature;humidity
24336;BME280;75016;52.400;16.880;2024-03-02T00:01:09;100083.02;;;12.19;100.00
24336;BME280;75016;52.400;16.880;2024-03-02T00:03:45;100085.72;;;12.20;100.00
24336;BME280;75016;52.400;16.880;2024-03-02T00:06:11;100085.90;;;12.21;100.00
24336;BME280;75016;52.400;16.880;2024-03-02T00:08:38;100082.96;;;12.22;100.00
24336;BME280;75016;52.400;16.880;2024-03-02T00:11:05;100080.45;;;12.22;100.00
24336;BME280;75016;52.400;16.880;2024-03-02T00:13:32;100077.42;;;12.18;100.00
24336;BME280;75016;52.400;16.880;2024-03-02T00:15:59;100076.41;;;12.17;100.00
24336;BME280;75016;52.400;16.880;2024-03-02T00:18:30;100076.46;;;12.17;100.00
24336;BME280;75016;52.400;16.880;2024-03-02T00:20:58;100074.48;;;12.11;100.00
24336;BME280;75016;52.400;16.880;2024-03-02T00:23:30;100068.99;;;12.07;100.00
24336;BME280;75016;52.400;16.880;2024-03-02T00:25:57;100066.60;;;12.02;100.00
24336;BME280;75016;52.400;16.880;2024-03-02T00:28:29;100074.38;;;12.01;100.00
24336;BME280;75016;52.400;16.880;2024-03-02T00:31:04;100071.32;;;12.03;100.00
24336;BME280;75016;52.400;16.880;2024-03-02T00:33:34;100072.97;;;12.04;100.00
24336;BME280;75016;52.400;16.880;2024-03-02T00:36:02;100070.95;;;12.05;100.00
24336;BME280;75016;52.400;16.880;2024-03-02T00:38:33;100074.27;;;12.02;100.00
24336;BME280;75016;52.400;16.880;2024-03-02T00:41:05;100076.04;;;12.04;100.00
24336;BME280;75016;52.400;16.880;2024-03-02T00:46:20;100074.29;;;12.00;100.00
24336;BME280;75016;52.400;16.880;2024-03-02T00:48:58;100071.71;;;12.01;100.00
24336;BME280;75016;52.400;16.880;2024-03-02T00:51:26;100074.23;;;11.96;100.00
24336;BME280;75016;52.400;16.880;2024-03-02T00:53:55;100073.27;;;11.91;100.00
24336;BME280;75016;52.400;16.880;2024-03-02T00:56:23;100077.61;;;11.88;100.00
24336;BME280;75016;52.400;16.880;2024-03-02T00:58:51;100069.38;;;11.89;100.00
24336;BME280;75016;52.400;16.880;2024-03-02T01:01:18;100069.14;;;11.85;100.00
24336;BME280;75016;52.400;16.880;2024-03-02T01:03:49;100067.09;;;11.84;100.00
24336;BME280;75016;52.400;16.880;2024-03-02T01:06:16;100065.26;;;11.83;100.00
24336;BME280;75016;52.400;16.880;2024-03-02T01:08:43;100062.30;;;11.76;100.00
24336;BME280;75016;52.400;16.880;2024-03-02T01:11:10;100055.52;;;11.69;100.00
24336;BME280;75016;52.400;16.880;2024-03-02T01:13:36;100058.23;;;11.66;100.00
24336;BME280;75016;52.400;16.880;2024-03-02T01:16:03;100059.16;;;11.68;100.00
24336;BME280;75016;52.400;16.880;2024-03-02T01:18:30;100061.76;;;11.71;100.00
24336;BME280;75016;52.400;16.880;2024-03-02T01:20:57;100057.85;;;11.69;100.00
24336;BME280;75016;52.400;16.880;2024-03-02T01:23:24;100054.92;;;11.66;100.00
24336;BME280;75016;52.400;16.880;2024-03-02T01:25:51;100054.40;;;11.64;100.00
24336;BME280;75016;52.400;16.880;2024-03-02T01:28:19;100054.92;;;11.64;100.00
24336;BME280;75016;52.400;16.880;2024-03-02T01:30:47;100054.95;;;11.63;100.00
24336;BME280;75016;52.400;16.880;2024-03-02T01:33:16;100053.92;;;11.65;100.00
24336;BME280;75016;52.400;16.880;2024-03-02T01:35:43;100052.58;;;11.68;100.00
24336;BME280;75016;52.400;16.880;2024-03-02T01:38:10;100052.42;;;11.70;100.00
24336;BME280;75016;52.400;16.880;2024-03-02T01:40:37;100053.87;;;11.65;100.00
24336;BME280;75016;52.400;16.880;2024-03-02T01:43:05;100043.41;;;11.61;100.00
24336;BME280;75016;52.400;16.880;2024-03-02T01:45:32;100041.62;;;11.63;100.00
24336;BME280;75016;52.400;16.880;2024-03-02T01:47:58;100033.17;;;11.66;100.00
24336;BME280;75016;52.400;16.880;2024-03-02T01:50:33;100030.14;;;11.68;100.00
24336;BME280;75016;52.400;16.880;2024-03-02T01:53:00;100033.05;;;11.70;100.00
24336;BME280;75016;52.400;16.880;2024-03-02T01:55:27;100025.63;;;11.71;100.00
24336;BME280;75016;52.400;16.880;2024-03-02T01:57:57;100024.14;;;11.70;100.00
24336;BME280;75016;52.400;16.880;2024-03-02T02:00:24;100029.45;;;11.64;100.00
24336;BME280;75016;52.400;16.880;2024-03-02T02:02:52;100029.09;;;11.60;100.00
24336;BME280;75016;52.400;16.880;2024-03-02T02:05:19;100025.56;;;11.59;100.00
24336;BME280;75016;52.400;16.880;2024-03-02T02:07:46;100021.58;;;11.58;100.00
24336;BME280;75016;52.400;16.880;2024-03-02T02:10:13;100021.69;;;11.53;100.00
24336;BME280;75016;52.400;16.880;2024-03-02T02:12:39;100021.91;;;11.53;100.00
24336;BME280;75016;52.400;16.880;2024-03-02T02:15:28;100026.73;;;11.54;100.00
24336;BME280;75016;52.400;16.880;2024-03-02T02:17:57;100022.38;;;11.52;100.00
24336;BME280;75016;52.400;16.880;2024-03-02T02:20:24;100023.69;;;11.51;100.00
24336;BME280;75016;52.400;16.880;2024-03-02T02:23:00;100022.55;;;11.50;100.00
24336;BME280;75016;52.400;16.880;2024-03-02T02:25:28;100026.64;;;11.48;100.00
24336;BME280;75016;52.400;16.880;2024-03-02T02:27:55;100028.45;;;11.45;100.00
24336;BME280;75016;52.400;16.880;2024-03-02T02:30:24;100030.75;;;11.43;100.00
24336;BME280;75016;52.400;16.880;2024-03-02T02:32:51;100032.78;;;11.42;100.00
24336;BME280;75016;52.400;16.880;2024-03-02T02:35:18;100031.11;;;11.41;100.00
24336;BME280;75016;52.400;16.880;2024-03-02T02:37:48;100030.50;;;11.40;100.00
24336;BME280;75016;52.400;16.880;2024-03-02T02:40:16;100025.77;;;11.36;100.00
24336;BME280;75016;52.400;16.880;2024-03-02T02:42:42;100030.64;;;11.33;100.00
24336;BME280;75016;52.400;16.880;2024-03-02T02:45:09;100021.54;;;11.29;100.00
24336;BME280;75016;52.400;16.880;2024-03-02T02:47:37;100023.30;;;11.27;100.00
24336;BME280;75016;52.400;16.880;2024-03-02T02:50:04;100021.27;;;11.25;100.00
24336;BME280;75016;52.400;16.880;2024-03-02T02:52:35;100021.40;;;11.18;100.00
24336;BME280;75016;52.400;16.880;2024-03-02T02:55:10;100022.09;;;11.10;100.00
24336;BME280;75016;52.400;16.880;2024-03-02T02:57:38;100021.89;;;11.07;100.00
24336;BME280;75016;52.400;16.880;2024-03-02T03:00:09;100023.17;;;11.06;100.00
24336;BME280;75016;52.400;16.880;2024-03-02T03:02:43;100025.45;;;11.07;100.00
24336;BME280;75016;52.400;16.880;2024-03-02T03:05:12;100026.14;;;11.07;100.00
24336;BME280;75016;52.400;16.880;2024-03-02T03:07:40;100032.48;;;11.05;100.00
24336;BME280;75016;52.400;16.880;2024-03-02T03:10:07;100037.80;;;11.03;100.00
24336;BME280;75016;52.400;16.880;2024-03-02T03:12:34;100031.35;;;11.02;100.00
24336;BME280;75016;52.400;16.880;2024-03-02T03:15:02;100025.88;;;11.00;100.00
24336;BME280;75016;52.400;16.880;2024-03-02T03:17:29;100029.71;;;10.99;100.00
24336;BME280;75016;52.400;16.880;2024-03-02T03:19:55;100026.27;;;10.97;100.00
24336;BME280;75016;52.400;16.880;2024-03-02T03:22:22;100021.30;;;10.95;100.00
24336;BME280;75016;52.400;16.880;2024-03-02T03:24:49;100015.02;;;10.98;100.00
24336;BME280;75016;52.400;16.880;2024-03-02T03:27:16;100005.96;;;11.02;100.00
24336;BME280;75016;52.400;16.880;2024-03-02T03:29:42;100005.23;;;11.02;100.00
24336;BME280;75016;52.400;16.880;2024-03-02T03:32:09;100006.46;;;11.02;100.00
24336;BME280;75016;52.400;16.880;2024-03-02T03:34:36;100011.58;;;11.03;100.00
24336;BME280;75016;52.400;16.880;2024-03-02T03:37:02;100010.61;;;11.02;100.00
24336;BME280;75016;52.400;16.880;2024-03-02T03:39:29;100010.15;;;10.99;100.00
24336;BME280;75016;52.400;16.880;2024-03-02T03:41:55;100006.10;;;10.99;100.00
24336;BME280;75016;52.400;16.880;2024-03-02T03:44:22;100010.78;;;10.98;100.00
24336;BME280;75016;52.400;16.880;2024-03-02T03:46:49;100012.94;;;10.97;100.00
24336;BME280;75016;52.400;16.880;2024-03-02T03:49:15;100013.56;;;10.99;100.00
24336;BME280;75016;52.400;16.880;2024-03-02T03:51:42;100011.20;;;10.99;100.00
24336;BME280;75016;52.400;16.880;2024-03-02T03:54:09;100008.74;;;10.99;100.00
24336;BME280;75016;52.400;16.880;2024-03-02T03:56:37;100005.31;;;11.00;100.00
24336;BME280;75016;52.400;16.880;2024-03-02T03:59:04;100003.64;;;10.98;100.00
24336;BME280;75016;52.400;16.880;2024-03-02T04:01:31;100002.24;;;10.95;100.00
24336;BME280;75016;52.400;16.880;2024-03-02T04:03:58;100002.90;;;10.92;100.00
24336;BME280;75016;52.400;16.880;2024-03-02T04:06:24;99997.10;;;10.91;100.00
24336;BME280;75016;52.400;16.880;2024-03-02T04:08:51;100002.27;;;10.91;100.00
24336;BME280;75016;52.400;16.880;2024-03-02T04:11:18;99996.48;;;10.94;100.00
24336;BME280;75016;52.400;16.880;2024-03-02T04:13:44;99996.30;;;10.92;100.00
24336;BME280;75016;52.400;16.880;2024-03-02T04:16:11;100000.79;;;10.90;100.00
24336;BME280;75016;52.400;16.880;2024-03-02T04:18:38;99999.64;;;10.89;100.00
24336;BME280;75016;52.400;16.880;2024-03-02T04:21:05;100007.45;;;10.87;100.00
24336;BME280;75016;52.400;16.880;2024-03-02T04:23:32;100013.75;;;10.84;100.00
24336;BME280;75016;52.400;16.880;2024-03-02T04:25:59;100015.88;;;10.82;100.00
24336;BME280;75016;52.400;16.880;2024-03-02T04:28:25;100016.76;;;10.86;100.00
24336;BME280;75016;52.400;16.880;2024-03-02T04:30:52;100019.38;;;10.88;100.00
24336;BME280;75016;52.400;16.880;2024-03-02T04:33:18;100021.45;;;10.89;100.00
24336;BME280;75016;52.400;16.880;2024-03-02T04:35:45;100024.39;;;10.88;100.00
24336;BME280;75016;52.400;16.880;2024-03-02T04:38:12;100026.11;;;10.90;100.00
24336;BME280;75016;52.400;16.880;2024-03-02T04:40:39;100026.23;;;10.93;100.00
24336;BME280;75016;52.400;16.880;2024-03-02T04:43:05;100026.88;;;10.92;100.00
24336;BME280;75016;52.400;16.880;2024-03-02T04:45:32;100031.05;;;10.91;100.00
24336;BME280;75016;52.400;16.880;2024-03-02T04:47:58;100033.96;;;10.92;100.00
24336;BME280;75016;52.400;16.880;2024-03-02T04:50:25;100032.98;;;10.91;100.00
24336;BME280;75016;52.400;16.880;2024-03-02T04:52:51;100036.67;;;10.88;100.00
24336;BME280;75016;52.400;16.880;2024-03-02T04:55:18;100043.16;;;10.86;100.00
24336;BME280;75016;52.400;16.880;2024-03-02T04:57:53;100042.02;;;10.87;100.00
24336;BME280;75016;52.400;16.880;2024-03-02T05:00:23;100045.83;;;10.90;100.00
24336;BME280;75016;52.400;16.880;2024-03-02T05:02:49;100042.94;;;10.91;100.00
24336;BME280;75016;52.400;16.880;2024-03-02T05:05:16;100043.66;;;10.91;100.00
24336;BME280;75016;52.400;16.880;2024-03-02T05:07:43;100041.52;;;10.91;100.00
24336;BME280;75016;52.400;16.880;2024-03-02T05:10:10;100043.77;;;10.90;100.00
24336;BME280;75016;52.400;16.880;2024-03-02T05:12:40;100048.30;;;10.93;100.00
24336;BME280;75016;52.400;16.880;2024-03-02T05:15:11;100048.20;;;10.96;100.00
24336;BME280;75016;52.400;16.880;2024-03-02T05:17:39;100050.39;;;10.97;100.00
24336;BME280;75016;52.400;16.880;2024-03-02T05:20:06;100049.83;;;10.93;100.00
24336;BME280;75016;52.400;16.880;2024-03-02T05:22:36;100045.06;;;10.91;100.00
24336;BME280;75016;52.400;16.880;2024-03-02T05:25:04;100045.59;;;10.89;100.00
24336;BME280;75016;52.400;16.880;2024-03-02T05:27:31;100051.64;;;10.89;100.00
24336;BME280;75016;52.400;16.880;2024-03-02T05:29:59;100052.30;;;10.87;100.00
24336;BME280;75016;52.400;16.880;2024-03-02T05:32:26;100053.23;;;10.85;100.00
24336;BME280;75016;52.400;16.880;2024-03-02T05:34:52;100055.59;;;10.86;100.00
24336;BME280;75016;52.400;16.880;2024-03-02T05:37:19;100057.55;;;10.86;100.00
24336;BME280;75016;52.400;16.880;2024-03-02T05:39:46;100056.39;;;10.85;100.00
24336;BME280;75016;52.400;16.880;2024-03-02T05:42:12;100062.02;;;10.86;100.00
24336;BME280;75016;52.400;16.880;2024-03-02T05:44:39;100063.95;;;10.82;100.00
24336;BME280;75016;52.400;16.880;2024-03-02T05:47:05;100062.44;;;10.77;100.00
24336;BME280;75016;52.400;16.880;2024-03-02T05:49:35;100063.16;;;10.77;100.00
24336;BME280;75016;52.400;16.880;2024-03-02T05:52:01;100057.61;;;10.77;100.00
24336;BME280;75016;52.400;16.880;2024-03-02T05:54:29;100054.27;;;10.77;100.00
24336;BME280;75016;52.400;16.880;2024-03-02T05:56:55;100058.50;;;10.77;100.00
24336;BME280;75016;52.400;16.880;2024-03-02T05:59:22;100054.77;;;10.75;100.00
24336;BME280;75016;52.400;16.880;2024-03-02T06:01:48;100064.02;;;10.71;100.00
24336;BME280;75016;52.400;16.880;2024-03-02T06:04:18;100067.20;;;10.65;100.00
24336;BME280;75016;52.400;16.880;2024-03-02T06:06:44;100075.45;;;10.61;100.00
24336;BME280;75016;52.400;16.880;2024-03-02T06:09:11;100077.85;;;10.58;100.00
24336;BME280;75016;52.400;16.880;2024-03-02T06:11:42;100083.39;;;10.56;100.00
24336;BME280;75016;52.400;16.880;2024-03-02T06:14:08;100082.11;;;10.56;100.00
24336;BME280;75016;52.400;16.880;2024-03-02T06:16:35;100089.77;;;10.54;100.00
24336;BME280;75016;52.400;16.880;2024-03-02T06:19:02;100088.95;;;10.53;100.00
24336;BME280;75016;52.400;16.880;2024-03-02T06:21:28;100087.89;;;10.49;100.00
24336;BME280;75016;52.400;16.880;2024-03-02T06:23:55;100084.02;;;10.48;100.00
24336;BME280;75016;52.400;16.880;2024-03-02T06:26:22;100087.80;;;10.48;100.00
24336;BME280;75016;52.400;16.880;2024-03-02T06:28:49;100092.65;;;10.47;100.00
24336;BME280;75016;52.400;16.880;2024-03-02T06:31:16;100098.16;;;10.46;100.00
24336;BME280;75016;52.400;16.880;2024-03-02T06:33:42;100102.11;;;10.44;100.00
24336;BME280;75016;52.400;16.880;2024-03-02T06:36:09;100112.47;;;10.43;100.00
24336;BME280;75016;52.400;16.880;2024-03-02T06:38:36;100115.66;;;10.47;100.00
24336;BME280;75016;52.400;16.880;2024-03-02T06:41:02;100107.30;;;10.52;100.00
24336;BME280;75016;52.400;16.880;2024-03-02T06:43:29;100102.86;;;10.52;100.00
24336;BME280;75016;52.400;16.880;2024-03-02T06:45:55;100098.90;;;10.53;100.00
24336;BME280;75016;52.400;16.880;2024-03-02T06:48:22;100104.66;;;10.56;100.00
24336;BME280;75016;52.400;16.880;2024-03-02T06:50:50;100097.02;;;10.58;100.00
24336;BME280;75016;52.400;16.880;2024-03-02T06:53:16;100099.11;;;10.63;100.00
24336;BME280;75016;52.400;16.880;2024-03-02T06:55:44;100092.27;;;10.66;100.00
24336;BME280;75016;52.400;16.880;2024-03-02T06:58:13;100090.52;;;10.70;100.00
24336;BME280;75016;52.400;16.880;2024-03-02T07:00:42;100093.73;;;10.70;100.00
24336;BME280;75016;52.400;16.880;2024-03-02T07:03:08;100100.64;;;10.72;100.00
24336;BME280;75016;52.400;16.880;2024-03-02T07:05:36;100102.62;;;10.76;100.00
24336;BME280;75016;52.400;16.880;2024-03-02T07:08:03;100103.63;;;10.81;100.00
24336;BME280;75016;52.400;16.880;2024-03-02T07:10:32;100106.30;;;10.83;100.00
24336;BME280;75016;52.400;16.880;2024-03-02T07:12:59;100104.13;;;10.81;100.00
24336;BME280;75016;52.400;16.880;2024-03-02T07:15:26;100105.70;;;10.84;100.00
24336;BME280;75016;52.400;16.880;2024-03-02T07:17:55;100100.27;;;10.89;100.00
24336;BME280;75016;52.400;16.880;2024-03-02T07:20:22;100106.64;;;10.93;100.00
24336;BME280;75016;52.400;16.880;2024-03-02T07:22:48;100103.67;;;11.01;100.00
24336;BME280;75016;52.400;16.880;2024-03-02T07:25:15;100114.13;;;11.06;100.00
24336;BME280;75016;52.400;16.880;2024-03-02T07:27:41;100115.23;;;11.07;100.00
24336;BME280;75016;52.400;16.880;2024-03-02T07:30:10;100113.77;;;11.06;100.00
24336;BME280;75016;52.400;16.880;2024-03-02T07:32:37;100110.91;;;11.08;100.00
24336;BME280;75016;52.400;16.880;2024-03-02T07:35:04;100119.55;;;11.13;100.00
24336;BME280;75016;52.400;16.880;2024-03-02T07:37:31;100118.94;;;11.14;100.00
24336;BME280;75016;52.400;16.880;2024-03-02T07:39:57;100117.56;;;11.13;100.00
24336;BME280;75016;52.400;16.880;2024-03-02T07:42:24;100116.45;;;11.18;100.00
24336;BME280;75016;52.400;16.880;2024-03-02T07:44:51;100119.82;;;11.22;100.00
24336;BME280;75016;52.400;16.880;2024-03-02T07:47:17;100121.23;;;11.26;100.00
24336;BME280;75016;52.400;16.880;2024-03-02T07:49:44;100118.71;;;11.31;100.00
24336;BME280;75016;52.400;16.880;2024-03-02T07:52:12;100128.33;;;11.35;100.00
24336;BME280;75016;52.400;16.880;2024-03-02T07:54:39;100128.73;;;11.40;100.00
24336;BME280;75016;52.400;16.880;2024-03-02T07:57:05;100131.45;;;11.46;100.00
24336;BME280;75016;52.400;16.880;2024-03-02T07:59:32;100132.52;;;11.50;100.00
24336;BME280;75016;52.400;16.880;2024-03-02T08:01:58;100134.33;;;11.56;100.00
24336;BME280;75016;52.400;16.880;2024-03-02T08:04:25;100136.14;;;11.59;100.00
24336;BME280;75016;52.400;16.880;2024-03-02T08:06:52;100137.10;;;11.65;100.00
24336;BME280;75016;52.400;16.880;2024-03-02T08:09:18;100133.20;;;11.71;100.00
24336;BME280;75016;52.400;16.880;2024-03-02T08:11:46;100137.06;;;11.77;100.00
24336;BME280;75016;52.400;16.880;2024-03-02T08:14:14;100136.77;;;11.85;100.00
24336;BME280;75016;52.400;16.880;2024-03-02T08:16:41;100141.49;;;11.88;100.00
24336;BME280;75016;52.400;16.880;2024-03-02T08:19:07;100146.23;;;11.92;100.00
24336;BME280;75016;52.400;16.880;2024-03-02T08:21:35;100145.14;;;11.99;99.98
24336;BME280;75016;52.400;16.880;2024-03-02T08:24:02;100148.50;;;12.05;100.00
24336;BME280;75016;52.400;16.880;2024-03-02T08:26:29;100146.68;;;12.12;100.00
24336;BME280;75016;52.400;16.880;2024-03-02T08:29:01;100145.28;;;12.17;99.91
24336;BME280;75016;52.400;16.880;2024-03-02T08:31:30;100140.05;;;12.22;99.87
24336;BME280;75016;52.400;16.880;2024-03-02T08:33:57;100138.05;;;12.24;99.60
24336;BME280;75016;52.400;16.880;2024-03-02T08:36:23;100144.23;;;12.35;99.83
24336;BME280;75016;52.400;16.880;2024-03-02T08:38:50;100140.69;;;12.46;99.82
24336;BME280;75016;52.400;16.880;2024-03-02T08:41:17;100142.40;;;12.53;99.64
24336;BME280;75016;52.400;16.880;2024-03-02T08:43:43;100146.71;;;12.58;99.33
24336;BME280;75016;52.400;16.880;2024-03-02T08:46:10;100148.89;;;12.64;99.14
24336;BME280;75016;52.400;16.880;2024-03-02T08:48:37;100147.56;;;12.65;98.60
24336;BME280;75016;52.400;16.880;2024-03-02T08:51:03;100144.27;;;12.66;98.43
24336;BME280;75016;52.400;16.880;2024-03-02T08:53:32;100143.30;;;12.67;98.22
24336;BME280;75016;52.400;16.880;2024-03-02T08:55:59;100142.45;;;12.70;98.25
24336;BME280;75016;52.400;16.880;2024-03-02T08:58:25;100138.52;;;12.76;98.28
24336;BME280;75016;52.400;16.880;2024-03-02T09:00:52;100142.97;;;12.82;98.01
24336;BME280;75016;52.400;16.880;2024-03-02T09:03:19;100143.48;;;12.88;98.07
24336;BME280;75016;52.400;16.880;2024-03-02T09:05:45;100144.46;;;12.95;97.99
24336;BME280;75016;52.400;16.880;2024-03-02T09:08:12;100140.86;;;13.01;98.04
24336;BME280;75016;52.400;16.880;2024-03-02T09:10:38;100145.63;;;13.11;98.00
24336;BME280;75016;52.400;16.880;2024-03-02T09:13:06;100140.84;;;13.18;97.80
24336;BME280;75016;52.400;16.880;2024-03-02T09:15:33;100141.83;;;13.24;97.54
24336;BME280;75016;52.400;16.880;2024-03-02T09:18:04;100147.04;;;13.32;97.39
24336;BME280;75016;52.400;16.880;2024-03-02T09:20:30;100147.06;;;13.35;96.96
24336;BME280;75016;52.400;16.880;2024-03-02T09:22:57;100149.46;;;13.37;96.62
24336;BME280;75016;52.400;16.880;2024-03-02T09:25:23;100147.34;;;13.44;96.52
24336;BME280;75016;52.400;16.880;2024-03-02T09:27:50;100146.23;;;13.50;96.26
24336;BME280;75016;52.400;16.880;2024-03-02T09:30:16;100143.70;;;13.54;95.92
24336;BME280;75016;52.400;16.880;2024-03-02T09:32:43;100142.90;;;13.61;95.86
24336;BME280;75016;52.400;16.880;2024-03-02T09:35:09;100143.02;;;13.73;95.84
24336;BME280;75016;52.400;16.880;2024-03-02T09:37:36;100137.61;;;13.86;95.92
24336;BME280;75016;52.400;16.880;2024-03-02T09:40:03;100138.27;;;13.94;95.61
24336;BME280;75016;52.400;16.880;2024-03-02T09:42:29;100138.14;;;14.03;95.23
24336;BME280;75016;52.400;16.880;2024-03-02T09:44:57;100144.19;;;14.06;94.85
24336;BME280;75016;52.400;16.880;2024-03-02T09:47:23;100144.16;;;14.12;94.70
24336;BME280;75016;52.400;16.880;2024-03-02T09:49:50;100145.39;;;14.21;94.51
24336;BME280;75016;52.400;16.880;2024-03-02T09:52:16;100143.95;;;14.31;94.26
24336;BME280;75016;52.400;16.880;2024-03-02T09:54:43;100147.42;;;14.35;93.64
24336;BME280;75016;52.400;16.880;2024-03-02T09:57:10;100148.58;;;14.40;93.42
24336;BME280;75016;52.400;16.880;2024-03-02T09:59:36;100154.08;;;14.51;93.45
24336;BME280;75016;52.400;16.880;2024-03-02T10:02:03;100153.09;;;14.57;93.03
24336;BME280;75016;52.400;16.880;2024-03-02T10:04:30;100151.53;;;14.64;92.80
24336;BME280;75016;52.400;16.880;2024-03-02T10:07:14;100153.47;;;14.65;92.13
24336;BME280;75016;52.400;16.880;2024-03-02T10:09:42;100158.50;;;14.64;91.76
24336;BME280;75016;52.400;16.880;2024-03-02T10:12:10;100155.67;;;14.66;91.74
24336;BME280;75016;52.400;16.880;2024-03-02T10:14:38;100160.63;;;14.64;91.28
24336;BME280;75016;52.400;16.880;2024-03-02T10:17:07;100163.20;;;14.64;91.09
24336;BME280;75016;52.400;16.880;2024-03-02T10:19:35;100163.88;;;14.66;91.07
24336;BME280;75016;52.400;16.880;2024-03-02T10:22:07;100161.34;;;14.70;90.91
24336;BME280;75016;52.400;16.880;2024-03-02T10:24:39;100157.73;;;14.77;90.92
24336;BME280;75016;52.400;16.880;2024-03-02T10:27:31;100152.73;;;14.86;90.94
24336;BME280;75016;52.400;16.880;2024-03-02T10:29:57;100153.77;;;14.91;90.29
24336;BME280;75016;52.400;16.880;2024-03-02T10:32:24;100151.52;;;14.92;90.00
24336;BME280;75016;52.400;16.880;2024-03-02T10:34:50;100146.63;;;14.97;89.88
24336;BME280;75016;52.400;16.880;2024-03-02T10:37:17;100146.98;;;15.04;89.72
24336;BME280;75016;52.400;16.880;2024-03-02T10:39:46;100145.35;;;15.17;90.01
24336;BME280;75016;52.400;16.880;2024-03-02T10:42:14;100137.98;;;15.31;89.79
24336;BME280;75016;52.400;16.880;2024-03-02T10:44:41;100138.52;;;15.36;88.96
24336;BME280;75016;52.400;16.880;2024-03-02T10:47:08;100133.70;;;15.45;88.92
24336;BME280;75016;52.400;16.880;2024-03-02T10:49:36;100137.10;;;15.53;88.49
24336;BME280;75016;52.400;16.880;2024-03-02T10:52:04;100139.77;;;15.62;88.54
24336;BME280;75016;52.400;16.880;2024-03-02T10:54:31;100139.42;;;15.71;88.19
24336;BME280;75016;52.400;16.880;2024-03-02T10:57:04;100133.41;;;15.82;87.89
24336;BME280;75016;52.400;16.880;2024-03-02T10:59:48;100127.28;;;15.95;87.59
24336;BME280;75016;52.400;16.880;2024-03-02T11:02:21;100124.81;;;16.04;87.00
24336;BME280;75016;52.400;16.880;2024-03-02T11:04:49;100123.19;;;16.13;86.57
24336;BME280;75016;52.400;16.880;2024-03-02T11:07:18;100127.09;;;16.23;86.45
24336;BME280;75016;52.400;16.880;2024-03-02T11:09:54;100124.27;;;16.35;85.96
24336;BME280;75016;52.400;16.880;2024-03-02T11:12:53;100119.05;;;16.40;85.55
24336;BME280;75016;52.400;16.880;2024-03-02T11:15:24;100116.81;;;16.49;85.07
24336;BME280;75016;52.400;16.880;2024-03-02T11:17:53;100109.86;;;16.60;84.83
24336;BME280;75016;52.400;16.880;2024-03-02T11:20:20;100114.15;;;16.73;84.79
24336;BME280;75016;52.400;16.880;2024-03-02T11:22:47;100118.69;;;16.82;84.40
24336;BME280;75016;52.400;16.880;2024-03-02T11:25:27;100119.52;;;16.87;83.78
24336;BME280;75016;52.400;16.880;2024-03-02T11:33:00;100118.19;;;16.74;82.56
24336;BME280;75016;52.400;16.880;2024-03-02T11:35:27;100120.23;;;16.72;82.40
24336;BME280;75016;52.400;16.880;2024-03-02T11:37:55;100116.01;;;16.61;81.82
24336;BME280;75016;52.400;16.880;2024-03-02T11:40:22;100117.23;;;16.55;81.61
24336;BME280;75016;52.400;16.880;2024-03-02T11:42:49;100118.06;;;16.49;81.31
24336;BME280;75016;52.400;16.880;2024-03-02T11:45:25;100117.70;;;16.47;81.50
24336;BME280;75016;52.400;16.880;2024-03-02T11:47:59;100116.98;;;16.50;81.57
24336;BME280;75016;52.400;16.880;2024-03-02T11:50:30;100116.24;;;16.49;81.42
24336;BME280;75016;52.400;16.880;2024-03-02T11:52:58;100115.34;;;16.46;81.35
24336;BME280;75016;52.400;16.880;2024-03-02T11:55:28;100113.52;;;16.43;81.29
24336;BME280;75016;52.400;16.880;2024-03-02T11:57:56;100112.61;;;16.41;81.12
24336;BME280;75016;52.400;16.880;2024-03-02T12:00:25;100112.20;;;16.40;81.17
24336;BME280;75016;52.400;16.880;2024-03-02T12:03:09;100115.54;;;16.45;81.21
24336;BME280;75016;52.400;16.880;2024-03-02T12:05:36;100117.86;;;16.53;81.18
24336;BME280;75016;52.400;16.880;2024-03-02T12:08:05;100117.22;;;16.57;81.13
24336;BME280;75016;52.400;16.880;2024-03-02T12:10:33;100122.27;;;16.65;81.06
24336;BME280;75016;52.400;16.880;2024-03-02T12:13:05;100118.02;;;16.67;80.56
24336;BME280;75016;52.400;16.880;2024-03-02T12:15:35;100118.13;;;16.71;80.42
24336;BME280;75016;52.400;16.880;2024-03-02T12:18:05;100112.13;;;16.78;80.19
24336;BME280;75016;52.400;16.880;2024-03-02T12:20:33;100113.60;;;16.81;80.06
24336;BME280;75016;52.400;16.880;2024-03-02T12:23:01;100112.84;;;16.82;79.57
24336;BME280;75016;52.400;16.880;2024-03-02T12:25:30;100108.98;;;16.76;79.24
24336;BME280;75016;52.400;16.880;2024-03-02T12:28:00;100111.98;;;16.75;79.32
24336;BME280;75016;52.400;16.880;2024-03-02T12:30:30;100113.52;;;16.74;79.23
24336;BME280;75016;52.400;16.880;2024-03-02T12:32:58;100114.80;;;16.69;78.78
24336;BME280;75016;52.400;16.880;2024-03-02T12:35:25;100114.46;;;16.69;78.95
24336;BME280;75016;52.400;16.880;2024-03-02T12:37:53;100112.02;;;16.68;79.10
24336;BME280;75016;52.400;16.880;2024-03-02T12:40:21;100113.15;;;16.71;79.15
24336;BME280;75016;52.400;16.880;2024-03-02T12:42:49;100116.04;;;16.76;79.03
24336;BME280;75016;52.400;16.880;2024-03-02T12:45:16;100112.47;;;16.80;78.82